Virtual Norwegian Aeroclub

Virtual Norwegian Aeroclub! A new look to our va.




 METAR AND TAF INFORMATION
METAR FOR ENBS
ADDS - METARS form results

(1127 UTC 20 June 2019)
Data provider http://aviationweather.gov/metar/data/
 
METAR text: ENBS 201120Z 32012KT 9999 SCT015 BKN026 07/01 Q1013
Conditions at: ENBS (BATSFJORD , NO) observed 1120 UTC 20 June 2019
Temperature: 7.0°C (45°F)
Dewpoint: 1.0°C (34°F) [RH = 66%]
Pressure (altimeter): 29.91 inches Hg (1013.0 mb)
Winds: from the NW (320 degrees) at 14 MPH (12 knots; 6.2 m/s)
Visibility: 6 or more miles (10+ km)
Ceiling: 2600 feet AGL
Clouds: scattered clouds at 1500 feet AGL
broken clouds at 2600 feet AGL
Weather: no significant weather observed at this time

METAR text: ENBS 201050Z 33015KT 9999 SCT015 BKN028 07/01 Q1013
Conditions at: ENBS (BATSFJORD , NO) observed 1050 UTC 20 June 2019
Temperature: 7.0°C (45°F)
Dewpoint: 1.0°C (34°F) [RH = 66%]
Pressure (altimeter): 29.91 inches Hg (1013.0 mb)
Winds: from the NNW (330 degrees) at 17 MPH (15 knots; 7.7 m/s)
Visibility: 6 or more miles (10+ km)
Ceiling: 2800 feet AGL
Clouds: scattered clouds at 1500 feet AGL
broken clouds at 2800 feet AGL
Weather: no significant weather observed at this time

 AIRPORT MAP

 RUNWAY INFORMATION
Runway 03 Runway length 3281 ft Runway width 98 ft
Runway elevation 480 ft Runway displaced threshold 0 ft Runway heading 44
Runway 21 Runway length 3281 ft Runway width 98 ft
Runway elevation 489 ft Runway displaced threshold 0 ft Runway heading 224

 AIRPORT FREQUENCIES
Type AFIS Name INFO Frequency 123.4 MHZ

 AIRPORT NEAR NAVIGATION AIDS
Type NDB Name Batsfjord Frequency 348 KHZ